Impacts METAR Board
IDs:

KRYW - Lago Vista/Allen Arp, TX, US

Updated at: 1300 UTC 14 Dec 2019
Potential Impact None Slight Moderate High
Time 14/01Z 14/02Z 14/03Z 14/04Z 14/05Z 14/06Z 14/07Z 14/08Z 14/09Z 14/10Z 14/11Z 14/12Z 14/13Z
Temp62 61 60 56 55 56 57 52 51 53 51 49
Dewpt36 36 36 38 36 37 37 39 39 38 39 38
Altim29.86 29.87 29.88 29.89 29.90 29.89 29.88 29.88 29.87 29.87 29.86 29.86
VIS10 10 10 10 10 10 10 10 10 10 10 10
CIG-- -- -- -- -- -- -- -- -- -- -- --
CoverCLRCLRCLRCLRCLRCLRCLRCLRCLRCLRCLRCLR
FltCatVFRVFRVFRVFRVFRVFRVFRVFRVFRVFRVFRVFR
WX------------------------
WDir3601020300022002402302200
WSpd5 6 6 3 0 0 3 0 4 4 3 0
WGst-- -- -- -- -- -- -- -- -- -- -- --
Raw hourly METARs
KRYW 140050Z AUTO 36005KT 10SM CLR 17/02 A2986 RMK AO2 T01660020
KRYW 140200Z AUTO 01006KT 10SM CLR 16/02 A2987 RMK AO2 T01600021
KRYW 140255Z AUTO 02006KT 10SM CLR 16/02 A2988 RMK AO2 T01560022
KRYW 140355Z AUTO 03003KT 10SM CLR 13/03 A2989 RMK AO2 T01330031
KRYW 140455Z AUTO 00000KT 10SM CLR 13/02 A2990 RMK AO2 T01280023
KRYW 140555Z AUTO 00000KT 10SM CLR 13/03 A2989 RMK AO2 T01330030 10180 20127 402300079
KRYW 140650Z AUTO 22003KT 10SM CLR 14/03 A2988 RMK AO2 T01410026
KRYW 140755Z AUTO 00000KT 10SM CLR 11/04 A2988 RMK AO2 T01100040
KRYW 140855Z AUTO 24004KT 10SM CLR 11/04 A2987 RMK AO2 T01060040
KRYW 140955Z AUTO 23004KT 10SM CLR 12/04 A2987 RMK AO2 T01150036
KRYW 141055Z AUTO 22003KT 10SM CLR 11/04 A2986 RMK AO2 T01050037
KRYW 141155Z AUTO 00000KT 10SM CLR 10/04 A2986 RMK AO2 T00970036 10145 20085




Page loaded:  13:39 UTC  |   05:39 AM Pacific  |   06:39 AM Mountain  |   07:39 AM Central  |   08:39 AM Eastern

 

ADVISORIES

FORECASTS

FORECASTS

OBSERVATIONS

USER TOOLS

ABOUT US